sensor_id;sensor_type;location;lat;lon;timestamp;pressure;altitude;pressure_sealevel;temperature;humidity
14269;BME280;7218;51.480;7.006;2024-01-15T00:00:51;76936.50;;;-143.00;86.82
14269;BME280;7218;51.480;7.006;2024-01-15T00:03:18;76910.53;;;-143.00;86.15
14269;BME280;7218;51.480;7.006;2024-01-15T00:05:44;76900.56;;;-143.00;85.53
14269;BME280;7218;51.480;7.006;2024-01-15T00:08:11;76902.56;;;-143.00;85.84
14269;BME280;7218;51.480;7.006;2024-01-15T00:10:37;76852.63;;;-143.00;84.74
14269;BME280;7218;51.480;7.006;2024-01-15T00:13:07;76888.56;;;-143.00;85.55
14269;BME280;7218;51.480;7.006;2024-01-15T00:15:33;76846.66;;;-143.00;84.53
14269;BME280;7218;51.480;7.006;2024-01-15T00:18:00;76840.66;;;-143.00;84.75
14269;BME280;7218;51.480;7.006;2024-01-15T00:20:26;76858.63;;;-143.00;84.60
14269;BME280;7218;51.480;7.006;2024-01-15T00:22:53;76860.63;;;-143.00;84.97
14269;BME280;7218;51.480;7.006;2024-01-15T00:25:19;76850.63;;;-143.00;85.23
14269;BME280;7218;51.480;7.006;2024-01-15T00:27:46;76830.66;;;-143.00;84.20
14269;BME280;7218;51.480;7.006;2024-01-15T00:30:14;76862.63;;;-143.00;85.29
14269;BME280;7218;51.480;7.006;2024-01-15T00:32:40;76868.59;;;-143.00;85.20
14269;BME280;7218;51.480;7.006;2024-01-15T00:35:07;76860.63;;;-143.00;85.24
14269;BME280;7218;51.480;7.006;2024-01-15T00:37:34;76874.59;;;-143.00;86.11
14269;BME280;7218;51.480;7.006;2024-01-15T00:40:01;76882.59;;;-143.00;85.75
14269;BME280;7218;51.480;7.006;2024-01-15T00:42:27;76872.59;;;-143.00;85.57
14269;BME280;7218;51.480;7.006;2024-01-15T00:44:54;76844.66;;;-143.00;84.61
14269;BME280;7218;51.480;7.006;2024-01-15T00:47:21;76812.69;;;-143.00;84.14
14269;BME280;7218;51.480;7.006;2024-01-15T00:49:48;76864.63;;;-143.00;85.11
14269;BME280;7218;51.480;7.006;2024-01-15T00:52:14;76832.66;;;-143.00;84.85
14269;BME280;7218;51.480;7.006;2024-01-15T00:54:41;76830.66;;;-143.00;84.53
14269;BME280;7218;51.480;7.006;2024-01-15T00:57:07;76838.66;;;-143.00;85.15
14269;BME280;7218;51.480;7.006;2024-01-15T00:59:34;76912.53;;;-143.00;87.07
14269;BME280;7218;51.480;7.006;2024-01-15T01:02:00;76856.63;;;-143.00;85.65
14269;BME280;7218;51.480;7.006;2024-01-15T01:04:29;76818.69;;;-143.00;85.00
14269;BME280;7218;51.480;7.006;2024-01-15T01:06:55;76798.72;;;-143.00;83.60
14269;BME280;7218;51.480;7.006;2024-01-15T01:09:22;76848.63;;;-143.00;84.18
14269;BME280;7218;51.480;7.006;2024-01-15T01:11:48;76806.72;;;-143.00;84.07
14269;BME280;7218;51.480;7.006;2024-01-15T01:14:14;76868.59;;;-143.00;85.23
14269;BME280;7218;51.480;7.006;2024-01-15T01:16:41;76780.75;;;-143.00;83.36
14269;BME280;7218;51.480;7.006;2024-01-15T01:19:07;76870.59;;;-143.00;85.74
14269;BME280;7218;51.480;7.006;2024-01-15T01:21:35;76844.66;;;-143.00;85.73
14269;BME280;7218;51.480;7.006;2024-01-15T01:24:02;76794.72;;;-143.00;84.09
14269;BME280;7218;51.480;7.006;2024-01-15T01:26:28;76808.72;;;-143.00;84.10
14269;BME280;7218;51.480;7.006;2024-01-15T01:28:55;76830.66;;;-143.00;84.82
14269;BME280;7218;51.480;7.006;2024-01-15T01:31:23;76814.69;;;-143.00;84.14
14269;BME280;7218;51.480;7.006;2024-01-15T01:33:49;76808.72;;;-143.00;84.31
14269;BME280;7218;51.480;7.006;2024-01-15T01:36:16;76764.78;;;-143.00;83.26
14269;BME280;7218;51.480;7.006;2024-01-15T01:38:44;76802.72;;;-143.00;83.97
14269;BME280;7218;51.480;7.006;2024-01-15T01:41:10;76790.75;;;-143.00;83.41
14269;BME280;7218;51.480;7.006;2024-01-15T01:43:37;76804.72;;;-143.00;84.36
14269;BME280;7218;51.480;7.006;2024-01-15T01:46:03;76790.75;;;-143.00;83.66
14269;BME280;7218;51.480;7.006;2024-01-15T01:48:31;76808.72;;;-143.00;84.02
14269;BME280;7218;51.480;7.006;2024-01-15T01:51:00;76794.72;;;-143.00;84.17
14269;BME280;7218;51.480;7.006;2024-01-15T01:53:29;76760.78;;;-143.00;82.92
14269;BME280;7218;51.480;7.006;2024-01-15T01:55:58;76812.69;;;-143.00;84.33
14269;BME280;7218;51.480;7.006;2024-01-15T01:58:25;76824.69;;;-143.00;84.61
14269;BME280;7218;51.480;7.006;2024-01-15T02:00:53;76840.66;;;-143.00;85.14
14269;BME280;7218;51.480;7.006;2024-01-15T02:03:20;76896.56;;;-143.00;86.11
14269;BME280;7218;51.480;7.006;2024-01-15T02:05:47;76876.59;;;-143.00;86.58
14269;BME280;7218;51.480;7.006;2024-01-15T02:08:15;76816.69;;;-143.00;84.71
14269;BME280;7218;51.480;7.006;2024-01-15T02:10:41;76858.63;;;-143.00;84.90
14269;BME280;7218;51.480;7.006;2024-01-15T02:13:09;76830.66;;;-143.00;85.41
14269;BME280;7218;51.480;7.006;2024-01-15T02:15:36;76868.59;;;-143.00;85.77
14269;BME280;7218;51.480;7.006;2024-01-15T02:18:04;76814.69;;;-143.00;84.48
14269;BME280;7218;51.480;7.006;2024-01-15T02:20:33;76848.63;;;-143.00;85.20
14269;BME280;7218;51.480;7.006;2024-01-15T02:23:08;76814.69;;;-143.00;84.75
14269;BME280;7218;51.480;7.006;2024-01-15T02:25:36;76820.69;;;-143.00;84.37
14269;BME280;7218;51.480;7.006;2024-01-15T02:28:04;76848.63;;;-143.00;85.06
14269;BME280;7218;51.480;7.006;2024-01-15T02:30:31;76810.69;;;-143.00;84.19
14269;BME280;7218;51.480;7.006;2024-01-15T02:32:58;76840.66;;;-143.00;84.29
14269;BME280;7218;51.480;7.006;2024-01-15T02:35:24;76864.63;;;-143.00;85.02
14269;BME280;7218;51.480;7.006;2024-01-15T02:37:50;76860.63;;;-143.00;85.24
14269;BME280;7218;51.480;7.006;2024-01-15T02:40:18;76854.63;;;-143.00;85.31
14269;BME280;7218;51.480;7.006;2024-01-15T02:42:45;76856.63;;;-143.00;84.78
14269;BME280;7218;51.480;7.006;2024-01-15T02:45:11;76818.69;;;-143.00;83.71
14269;BME280;7218;51.480;7.006;2024-01-15T02:47:38;76840.66;;;-143.00;83.93
14269;BME280;7218;51.480;7.006;2024-01-15T02:50:05;76802.72;;;-143.00;83.92
14269;BME280;7218;51.480;7.006;2024-01-15T02:52:32;76808.72;;;-143.00;83.88
14269;BME280;7218;51.480;7.006;2024-01-15T02:54:58;76816.69;;;-143.00;83.82
14269;BME280;7218;51.480;7.006;2024-01-15T02:57:26;76832.66;;;-143.00;84.28
14269;BME280;7218;51.480;7.006;2024-01-15T02:59:53;76788.75;;;-143.00;83.53
14269;BME280;7218;51.480;7.006;2024-01-15T03:02:19;76820.69;;;-143.00;84.09
14269;BME280;7218;51.480;7.006;2024-01-15T03:04:46;76782.75;;;-143.00;83.07
14269;BME280;7218;51.480;7.006;2024-01-15T03:07:12;76814.69;;;-143.00;84.09
14269;BME280;7218;51.480;7.006;2024-01-15T03:09:39;76838.66;;;-143.00;84.76
14269;BME280;7218;51.480;7.006;2024-01-15T03:12:06;76820.69;;;-143.00;84.38
14269;BME280;7218;51.480;7.006;2024-01-15T03:14:34;76836.66;;;-143.00;85.02
14269;BME280;7218;51.480;7.006;2024-01-15T03:17:01;76852.63;;;-143.00;85.02
14269;BME280;7218;51.480;7.006;2024-01-15T03:19:28;76812.69;;;-143.00;84.07
14269;BME280;7218;51.480;7.006;2024-01-15T03:21:55;76804.72;;;-143.00;83.39
14269;BME280;7218;51.480;7.006;2024-01-15T03:24:22;76838.66;;;-143.00;84.64
14269;BME280;7218;51.480;7.006;2024-01-15T03:26:48;76788.75;;;-143.00;83.35
14269;BME280;7218;51.480;7.006;2024-01-15T03:29:15;76820.69;;;-143.00;83.70
14269;BME280;7218;51.480;7.006;2024-01-15T03:31:43;76836.66;;;-143.00;84.90
14269;BME280;7218;51.480;7.006;2024-01-15T03:34:12;76842.66;;;-143.00;84.51
14269;BME280;7218;51.480;7.006;2024-01-15T03:36:38;76818.69;;;-143.00;84.21
14269;BME280;7218;51.480;7.006;2024-01-15T03:39:06;76836.66;;;-143.00;84.29
14269;BME280;7218;51.480;7.006;2024-01-15T03:41:32;76806.72;;;-143.00;83.62
14269;BME280;7218;51.480;7.006;2024-01-15T03:43:59;76786.75;;;-143.00;82.98
14269;BME280;7218;51.480;7.006;2024-01-15T03:46:26;76782.75;;;-143.00;82.85
14269;BME280;7218;51.480;7.006;2024-01-15T03:48:54;76766.78;;;-143.00;82.52
14269;BME280;7218;51.480;7.006;2024-01-15T03:51:20;76832.66;;;-143.00;84.12
14269;BME280;7218;51.480;7.006;2024-01-15T03:53:47;76854.63;;;-143.00;84.55
14269;BME280;7218;51.480;7.006;2024-01-15T03:56:13;76818.69;;;-143.00;83.68
14269;BME280;7218;51.480;7.006;2024-01-15T03:58:40;76836.66;;;-143.00;83.97
14269;BME280;7218;51.480;7.006;2024-01-15T04:01:08;76848.63;;;-143.00;84.98
14269;BME280;7218;51.480;7.006;2024-01-15T04:03:35;76804.72;;;-143.00;83.34
14269;BME280;7218;51.480;7.006;2024-01-15T04:06:03;76876.59;;;-143.00;85.55
14269;BME280;7218;51.480;7.006;2024-01-15T04:08:30;76866.63;;;-143.00;85.89
14269;BME280;7218;51.480;7.006;2024-01-15T04:10:57;76846.66;;;-143.00;85.21
14269;BME280;7218;51.480;7.006;2024-01-15T04:13:23;76856.63;;;-143.00;85.73
14269;BME280;7218;51.480;7.006;2024-01-15T04:15:49;76882.59;;;-143.00;86.06
14269;BME280;7218;51.480;7.006;2024-01-15T04:18:16;76840.66;;;-143.00;85.05
14269;BME280;7218;51.480;7.006;2024-01-15T04:20:43;76866.63;;;-143.00;86.11
14269;BME280;7218;51.480;7.006;2024-01-15T04:23:11;76870.59;;;-143.00;87.04
14269;BME280;7218;51.480;7.006;2024-01-15T04:25:38;76882.59;;;-143.00;86.28
14269;BME280;7218;51.480;7.006;2024-01-15T04:28:07;76880.59;;;-143.00;86.89
14269;BME280;7218;51.480;7.006;2024-01-15T04:30:34;76844.66;;;-143.00;85.84
14269;BME280;7218;51.480;7.006;2024-01-15T04:33:00;76882.59;;;-143.00;86.65
14269;BME280;7218;51.480;7.006;2024-01-15T04:35:27;76874.59;;;-143.00;86.93
14269;BME280;7218;51.480;7.006;2024-01-15T04:37:53;76844.66;;;-143.00;86.47
14269;BME280;7218;51.480;7.006;2024-01-15T04:40:21;76822.69;;;-143.00;85.34
14269;BME280;7218;51.480;7.006;2024-01-15T04:42:48;76820.69;;;-143.00;85.70
14269;BME280;7218;51.480;7.006;2024-01-15T04:45:14;76802.72;;;-143.00;85.26
14269;BME280;7218;51.480;7.006;2024-01-15T04:47:41;76812.69;;;-143.00;85.33
14269;BME280;7218;51.480;7.006;2024-01-15T04:50:08;76840.66;;;-143.00;86.25
14269;BME280;7218;51.480;7.006;2024-01-15T04:52:34;76850.63;;;-143.00;86.61
14269;BME280;7218;51.480;7.006;2024-01-15T04:55:01;76836.66;;;-143.00;86.21
14269;BME280;7218;51.480;7.006;2024-01-15T04:57:29;76844.66;;;-143.00;86.64
14269;BME280;7218;51.480;7.006;2024-01-15T04:59:56;76842.66;;;-143.00;86.82
14269;BME280;7218;51.480;7.006;2024-01-15T05:02:23;76822.69;;;-143.00;86.22
14269;BME280;7218;51.480;7.006;2024-01-15T05:04:49;76816.69;;;-143.00;86.05
14269;BME280;7218;51.480;7.006;2024-01-15T05:07:16;76824.69;;;-143.00;85.57
14269;BME280;7218;51.480;7.006;2024-01-15T05:09:48;76788.75;;;-143.00;85.37
14269;BME280;7218;51.480;7.006;2024-01-15T05:12:15;76830.66;;;-143.00;85.65
14269;BME280;7218;51.480;7.006;2024-01-15T05:14:43;76842.66;;;-143.00;86.73
14269;BME280;7218;51.480;7.006;2024-01-15T05:17:10;76836.66;;;-143.00;85.92
14269;BME280;7218;51.480;7.006;2024-01-15T05:19:37;76832.66;;;-143.00;85.80
14269;BME280;7218;51.480;7.006;2024-01-15T05:22:04;76808.72;;;-143.00;85.19
14269;BME280;7218;51.480;7.006;2024-01-15T05:24:30;76832.66;;;-143.00;85.96
14269;BME280;7218;51.480;7.006;2024-01-15T05:26:57;76874.59;;;-143.00;87.69
14269;BME280;7218;51.480;7.006;2024-01-15T05:29:23;76852.63;;;-143.00;87.32
14269;BME280;7218;51.480;7.006;2024-01-15T05:31:51;76844.66;;;-143.00;86.96
14269;BME280;7218;51.480;7.006;2024-01-15T05:34:18;76834.66;;;-143.00;86.43
14269;BME280;7218;51.480;7.006;2024-01-15T05:36:44;76812.69;;;-143.00;85.99
14269;BME280;7218;51.480;7.006;2024-01-15T05:39:13;76826.69;;;-143.00;86.39
14269;BME280;7218;51.480;7.006;2024-01-15T05:41:39;76808.72;;;-143.00;85.80
14269;BME280;7218;51.480;7.006;2024-01-15T05:44:06;76764.78;;;-143.00;84.61
14269;BME280;7218;51.480;7.006;2024-01-15T05:46:32;76808.72;;;-143.00;85.18
14269;BME280;7218;51.480;7.006;2024-01-15T05:49:00;76826.69;;;-143.00;85.96
14269;BME280;7218;51.480;7.006;2024-01-15T05:51:26;76824.69;;;-143.00;85.88
14269;BME280;7218;51.480;7.006;2024-01-15T05:53:53;76786.75;;;-143.00;85.00
14269;BME280;7218;51.480;7.006;2024-01-15T05:56:20;76800.72;;;-143.00;85.21
14269;BME280;7218;51.480;7.006;2024-01-15T05:58:46;76802.72;;;-143.00;84.98
14269;BME280;7218;51.480;7.006;2024-01-15T06:01:13;76796.72;;;-143.00;85.14
14269;BME280;7218;51.480;7.006;2024-01-15T06:03:39;76784.75;;;-143.00;84.83
14269;BME280;7218;51.480;7.006;2024-01-15T06:06:08;76796.72;;;-143.00;85.66
14269;BME280;7218;51.480;7.006;2024-01-15T06:08:34;76804.72;;;-143.00;85.97
14269;BME280;7218;51.480;7.006;2024-01-15T06:11:01;76820.69;;;-143.00;85.99
14269;BME280;7218;51.480;7.006;2024-01-15T06:13:28;76830.66;;;-143.00;85.92
14269;BME280;7218;51.480;7.006;2024-01-15T06:15:57;76806.72;;;-143.00;86.22
14269;BME280;7218;51.480;7.006;2024-01-15T06:18:26;76814.69;;;-143.00;86.44
14269;BME280;7218;51.480;7.006;2024-01-15T06:20:53;76828.66;;;-143.00;86.63
14269;BME280;7218;51.480;7.006;2024-01-15T06:23:20;76814.69;;;-143.00;86.73
14269;BME280;7218;51.480;7.006;2024-01-15T06:25:47;76812.69;;;-143.00;86.71
14269;BME280;7218;51.480;7.006;2024-01-15T06:28:14;76776.75;;;-143.00;85.67
14269;BME280;7218;51.480;7.006;2024-01-15T06:30:40;76786.75;;;-143.00;85.78
14269;BME280;7218;51.480;7.006;2024-01-15T06:33:07;76772.75;;;-143.00;85.28
14269;BME280;7218;51.480;7.006;2024-01-15T06:35:33;76790.75;;;-143.00;85.63
14269;BME280;7218;51.480;7.006;2024-01-15T06:38:00;76762.78;;;-143.00;84.93
14269;BME280;7218;51.480;7.006;2024-01-15T06:40:28;76754.78;;;-143.00;85.62
14269;BME280;7218;51.480;7.006;2024-01-15T06:42:55;76736.81;;;-143.00;84.81
14269;BME280;7218;51.480;7.006;2024-01-15T06:45:21;76752.81;;;-143.00;85.01
14269;BME280;7218;51.480;7.006;2024-01-15T06:47:47;76772.75;;;-143.00;85.12
14269;BME280;7218;51.480;7.006;2024-01-15T06:50:14;76748.81;;;-143.00;84.70
14269;BME280;7218;51.480;7.006;2024-01-15T06:52:40;76752.81;;;-143.00;84.68
14269;BME280;7218;51.480;7.006;2024-01-15T06:55:07;76772.75;;;-143.00;85.44
14269;BME280;7218;51.480;7.006;2024-01-15T06:57:35;76764.78;;;-143.00;85.37
14269;BME280;7218;51.480;7.006;2024-01-15T07:00:02;76756.78;;;-143.00;84.88
14269;BME280;7218;51.480;7.006;2024-01-15T07:02:33;76778.75;;;-143.00;85.42
14269;BME280;7218;51.480;7.006;2024-01-15T07:04:59;76798.72;;;-143.00;84.85
14269;BME280;7218;51.480;7.006;2024-01-15T07:07:25;76742.81;;;-143.00;84.09
14269;BME280;7218;51.480;7.006;2024-01-15T07:09:55;76760.78;;;-143.00;84.05
14269;BME280;7218;51.480;7.006;2024-01-15T07:12:21;76768.78;;;-143.00;84.64
14269;BME280;7218;51.480;7.006;2024-01-15T07:14:49;76790.75;;;-143.00;84.82
14269;BME280;7218;51.480;7.006;2024-01-15T07:17:16;76776.75;;;-143.00;84.36
14269;BME280;7218;51.480;7.006;2024-01-15T07:19:42;76766.78;;;-143.00;84.15
14269;BME280;7218;51.480;7.006;2024-01-15T07:22:09;76762.78;;;-143.00;83.96
14269;BME280;7218;51.480;7.006;2024-01-15T07:24:35;76766.78;;;-143.00;83.95
14269;BME280;7218;51.480;7.006;2024-01-15T07:27:02;76730.84;;;-143.00;83.21
14269;BME280;7218;51.480;7.006;2024-01-15T07:29:29;76716.84;;;-143.00;82.87
14269;BME280;7218;51.480;7.006;2024-01-15T07:31:59;76728.84;;;-143.00;83.39
14269;BME280;7218;51.480;7.006;2024-01-15T07:34:26;76732.84;;;-143.00;83.09
14269;BME280;7218;51.480;7.006;2024-01-15T07:36:52;76770.78;;;-143.00;84.42
14269;BME280;7218;51.480;7.006;2024-01-15T07:39:19;76780.75;;;-143.00;84.80
14269;BME280;7218;51.480;7.006;2024-01-15T07:41:45;76758.78;;;-143.00;84.80
14269;BME280;7218;51.480;7.006;2024-01-15T07:44:12;76760.78;;;-143.00;84.46
14269;BME280;7218;51.480;7.006;2024-01-15T07:46:39;76764.78;;;-143.00;84.52
14269;BME280;7218;51.480;7.006;2024-01-15T07:49:07;76760.78;;;-143.00;84.97
14269;BME280;7218;51.480;7.006;2024-01-15T07:51:34;76744.81;;;-143.00;84.02
14269;BME280;7218;51.480;7.006;2024-01-15T07:54:00;76764.78;;;-143.00;85.35
14269;BME280;7218;51.480;7.006;2024-01-15T07:56:27;76748.81;;;-143.00;84.72
14269;BME280;7218;51.480;7.006;2024-01-15T07:58:54;76716.84;;;-143.00;84.05
14269;BME280;7218;51.480;7.006;2024-01-15T08:01:20;76758.78;;;-143.00;84.92
14269;BME280;7218;51.480;7.006;2024-01-15T08:03:47;76748.81;;;-143.00;84.34
14269;BME280;7218;51.480;7.006;2024-01-15T08:06:15;76712.88;;;-143.00;83.85
14269;BME280;7218;51.480;7.006;2024-01-15T08:08:41;76746.81;;;-143.00;84.50
14269;BME280;7218;51.480;7.006;2024-01-15T08:11:08;76788.75;;;-143.00;85.16
14269;BME280;7218;51.480;7.006;2024-01-15T08:13:34;76760.78;;;-143.00;85.27
14269;BME280;7218;51.480;7.006;2024-01-15T08:16:01;76768.78;;;-143.00;85.34
14269;BME280;7218;51.480;7.006;2024-01-15T08:18:28;76756.78;;;-143.00;85.24
14269;BME280;7218;51.480;7.006;2024-01-15T08:20:54;76790.75;;;-143.00;85.77
14269;BME280;7218;51.480;7.006;2024-01-15T08:23:22;76808.72;;;-143.00;86.89
14269;BME280;7218;51.480;7.006;2024-01-15T08:25:50;76768.78;;;-143.00;85.58
14269;BME280;7218;51.480;7.006;2024-01-15T08:28:17;76796.72;;;-143.00;85.80
14269;BME280;7218;51.480;7.006;2024-01-15T08:30:44;76802.72;;;-143.00;86.67
14269;BME280;7218;51.480;7.006;2024-01-15T08:33:11;76804.72;;;-143.00;87.14
14269;BME280;7218;51.480;7.006;2024-01-15T08:35:38;76812.69;;;-143.00;87.25
14269;BME280;7218;51.480;7.006;2024-01-15T08:38:07;76802.72;;;-143.00;87.27
14269;BME280;7218;51.480;7.006;2024-01-15T08:40:37;76810.69;;;-143.00;87.42
14269;BME280;7218;51.480;7.006;2024-01-15T08:43:03;76820.69;;;-143.00;87.28
14269;BME280;7218;51.480;7.006;2024-01-15T08:45:31;76832.66;;;-143.00;87.87
14269;BME280;7218;51.480;7.006;2024-01-15T08:47:58;76798.72;;;-143.00;87.30
14269;BME280;7218;51.480;7.006;2024-01-15T08:50:26;76808.72;;;-143.00;87.31
14269;BME280;7218;51.480;7.006;2024-01-15T08:52:52;76768.78;;;-143.00;86.36
14269;BME280;7218;51.480;7.006;2024-01-15T08:55:19;76806.72;;;-143.00;86.65
14269;BME280;7218;51.480;7.006;2024-01-15T08:57:49;76810.69;;;-143.00;87.11
14269;BME280;7218;51.480;7.006;2024-01-15T09:00:16;76832.66;;;-143.00;86.90
14269;BME280;7218;51.480;7.006;2024-01-15T09:02:44;76812.69;;;-143.00;86.64
14269;BME280;7218;51.480;7.006;2024-01-15T09:05:10;76872.59;;;-143.00;88.52
14269;BME280;7218;51.480;7.006;2024-01-15T09:07:37;76864.63;;;-143.00;87.84
14269;BME280;7218;51.480;7.006;2024-01-15T09:10:04;76818.69;;;-143.00;86.82
14269;BME280;7218;51.480;7.006;2024-01-15T09:12:31;76842.66;;;-143.00;87.25
14269;BME280;7218;51.480;7.006;2024-01-15T09:15:00;76836.66;;;-143.00;87.64
14269;BME280;7218;51.480;7.006;2024-01-15T09:17:29;76842.66;;;-143.00;87.54
14269;BME280;7218;51.480;7.006;2024-01-15T09:19:56;76900.56;;;-143.00;88.24
14269;BME280;7218;51.480;7.006;2024-01-15T09:22:22;76868.59;;;-143.00;87.99
14269;BME280;7218;51.480;7.006;2024-01-15T09:24:49;76840.66;;;-143.00;87.39
14269;BME280;7218;51.480;7.006;2024-01-15T09:27:15;76864.63;;;-143.00;87.45
14269;BME280;7218;51.480;7.006;2024-01-15T09:29:43;76840.66;;;-143.00;86.98
14269;BME280;7218;51.480;7.006;2024-01-15T09:32:12;76808.72;;;-143.00;86.45
14269;BME280;7218;51.480;7.006;2024-01-15T09:34:39;76852.63;;;-143.00;86.96
14269;BME280;7218;51.480;7.006;2024-01-15T09:37:07;76864.63;;;-143.00;87.65
14269;BME280;7218;51.480;7.006;2024-01-15T09:39:33;76840.66;;;-143.00;87.05
14269;BME280;7218;51.480;7.006;2024-01-15T09:42:00;76816.69;;;-143.00;86.70
14269;BME280;7218;51.480;7.006;2024-01-15T09:44:28;76812.69;;;-143.00;86.17
14269;BME280;7218;51.480;7.006;2024-01-15T09:46:56;76824.69;;;-143.00;86.28
14269;BME280;7218;51.480;7.006;2024-01-15T09:49:25;76838.66;;;-143.00;86.16
14269;BME280;7218;51.480;7.006;2024-01-15T09:51:51;76808.72;;;-143.00;85.26
14269;BME280;7218;51.480;7.006;2024-01-15T09:54:18;76810.69;;;-143.00;85.29
14269;BME280;7218;51.480;7.006;2024-01-15T09:56:45;76814.69;;;-143.00;86.16
14269;BME280;7218;51.480;7.006;2024-01-15T09:59:13;76798.72;;;-143.00;85.75
14269;BME280;7218;51.480;7.006;2024-01-15T10:01:41;76798.72;;;-143.00;85.80
14269;BME280;7218;51.480;7.006;2024-01-15T10:04:08;76828.66;;;-143.00;86.06
14269;BME280;7218;51.480;7.006;2024-01-15T10:06:36;76820.69;;;-143.00;85.76
14269;BME280;7218;51.480;7.006;2024-01-15T10:09:04;76804.72;;;-143.00;84.81
14269;BME280;7218;51.480;7.006;2024-01-15T10:11:33;76788.75;;;-143.00;84.47
14269;BME280;7218;51.480;7.006;2024-01-15T10:13:59;76770.78;;;-143.00;84.17
14269;BME280;7218;51.480;7.006;2024-01-15T10:16:26;76782.75;;;-143.00;84.05
14269;BME280;7218;51.480;7.006;2024-01-15T10:18:52;76756.78;;;-143.00;83.88
14269;BME280;7218;51.480;7.006;2024-01-15T10:21:19;76768.78;;;-143.00;84.23
14269;BME280;7218;51.480;7.006;2024-01-15T10:23:48;76756.78;;;-143.00;84.47
14269;BME280;7218;51.480;7.006;2024-01-15T10:26:14;76760.78;;;-143.00;84.33
14269;BME280;7218;51.480;7.006;2024-01-15T10:28:41;76748.81;;;-143.00;84.26
14269;BME280;7218;51.480;7.006;2024-01-15T10:31:08;76754.78;;;-143.00;83.88
14269;BME280;7218;51.480;7.006;2024-01-15T10:33:35;76778.75;;;-143.00;83.89
14269;BME280;7218;51.480;7.006;2024-01-15T10:36:02;76756.78;;;-143.00;84.29
14269;BME280;7218;51.480;7.006;2024-01-15T10:38:29;76760.78;;;-143.00;84.26
14269;BME280;7218;51.480;7.006;2024-01-15T10:40:56;76764.78;;;-143.00;84.51
14269;BME280;7218;51.480;7.006;2024-01-15T10:43:23;76702.88;;;-143.00;82.71
14269;BME280;7218;51.480;7.006;2024-01-15T10:45:51;76738.81;;;-143.00;83.08
14269;BME280;7218;51.480;7.006;2024-01-15T10:48:18;76760.78;;;-143.00;83.63
14269;BME280;7218;51.480;7.006;2024-01-15T10:50:46;76738.81;;;-143.00;82.59
14269;BME280;7218;51.480;7.006;2024-01-15T10:53:15;76696.91;;;-143.00;82.38
14269;BME280;7218;51.480;7.006;2024-01-15T10:55:42;76740.81;;;-143.00;82.64
14269;BME280;7218;51.480;7.006;2024-01-15T10:58:10;76732.84;;;-143.00;82.51
14269;BME280;7218;51.480;7.006;2024-01-15T11:00:37;76660.94;;;-143.00;81.21
14269;BME280;7218;51.480;7.006;2024-01-15T11:03:05;76704.88;;;-143.00;81.65
14269;BME280;7218;51.480;7.006;2024-01-15T11:05:33;76706.88;;;-143.00;81.25
14269;BME280;7218;51.480;7.006;2024-01-15T11:08:01;76641.00;;;-143.00;80.34
14269;BME280;7218;51.480;7.006;2024-01-15T11:10:45;76435.34;;;-143.00;74.30
14269;BME280;7218;51.480;7.006;2024-01-15T11:13:19;76563.13;;;-143.00;74.91
14269;BME280;7218;51.480;7.006;2024-01-15T11:15:56;76591.06;;;-143.00;76.57
14269;BME280;7218;51.480;7.006;2024-01-15T11:18:23;76664.94;;;-143.00;78.63
14269;BME280;7218;51.480;7.006;2024-01-15T11:21:20;76700.88;;;-143.00;80.48
14269;BME280;7218;51.480;7.006;2024-01-15T11:23:49;76712.88;;;-143.00;81.51
14269;BME280;7218;51.480;7.006;2024-01-15T11:26:34;76708.88;;;-143.00;81.20
14269;BME280;7218;51.480;7.006;2024-01-15T11:29:03;76760.78;;;-143.00;82.24
14269;BME280;7218;51.480;7.006;2024-01-15T11:32:01;76680.91;;;-143.00;80.93
14269;BME280;7218;51.480;7.006;2024-01-15T11:34:52;76656.97;;;-143.00;80.68
14269;BME280;7218;51.480;7.006;2024-01-15T11:37:19;76742.81;;;-143.00;82.21
14269;BME280;7218;51.480;7.006;2024-01-15T11:39:46;76740.81;;;-143.00;82.10
14269;BME280;7218;51.480;7.006;2024-01-15T11:42:13;76740.81;;;-143.00;82.41
14269;BME280;7218;51.480;7.006;2024-01-15T11:44:43;76714.88;;;-143.00;82.66
14269;BME280;7218;51.480;7.006;2024-01-15T11:47:11;76740.81;;;-143.00;82.62
14269;BME280;7218;51.480;7.006;2024-01-15T11:49:59;76750.81;;;-143.00;83.46
14269;BME280;7218;51.480;7.006;2024-01-15T11:52:32;76750.81;;;-143.00;83.75
14269;BME280;7218;51.480;7.006;2024-01-15T11:55:01;76754.78;;;-143.00;83.71
14269;BME280;7218;51.480;7.006;2024-01-15T11:57:35;76780.75;;;-143.00;84.24
14269;BME280;7218;51.480;7.006;2024-01-15T12:00:06;76732.84;;;-143.00;82.88
14269;BME280;7218;51.480;7.006;2024-01-15T12:02:33;76744.81;;;-143.00;83.39
14269;BME280;7218;51.480;7.006;2024-01-15T12:04:59;76770.78;;;-143.00;84.36
14269;BME280;7218;51.480;7.006;2024-01-15T12:07:26;76788.75;;;-143.00;84.93
14269;BME280;7218;51.480;7.006;2024-01-15T12:09:52;76816.69;;;-143.00;85.31
14269;BME280;7218;51.480;7.006;2024-01-15T12:12:26;76770.78;;;-143.00;84.53
14269;BME280;7218;51.480;7.006;2024-01-15T12:14:55;76828.66;;;-143.00;85.72
14269;BME280;7218;51.480;7.006;2024-01-15T12:17:24;76796.72;;;-143.00;85.12
14269;BME280;7218;51.480;7.006;2024-01-15T12:19:50;76736.81;;;-143.00;84.12
14269;BME280;7218;51.480;7.006;2024-01-15T12:22:17;76730.84;;;-143.00;83.22
14269;BME280;7218;51.480;7.006;2024-01-15T12:24:44;76692.91;;;-143.00;82.30
14269;BME280;7218;51.480;7.006;2024-01-15T12:27:11;76692.91;;;-143.00;81.98
14269;BME280;7218;51.480;7.006;2024-01-15T12:29:38;76660.94;;;-143.00;81.31
14269;BME280;7218;51.480;7.006;2024-01-15T12:32:04;76629.00;;;-143.00;79.89
14269;BME280;7218;51.480;7.006;2024-01-15T12:34:33;76639.00;;;-143.00;80.07
14269;BME280;7218;51.480;7.006;2024-01-15T12:37:00;76637.00;;;-143.00;79.81
14269;BME280;7218;51.480;7.006;2024-01-15T12:39:26;76736.81;;;-143.00;81.73
14269;BME280;7218;51.480;7.006;2024-01-15T12:41:53;76734.81;;;-143.00;82.53
14269;BME280;7218;51.480;7.006;2024-01-15T12:44:20;76762.78;;;-143.00;83.52
14269;BME280;7218;51.480;7.006;2024-01-15T12:46:46;76736.81;;;-143.00;83.24
14269;BME280;7218;51.480;7.006;2024-01-15T12:49:13;76782.75;;;-143.00;84.40
14269;BME280;7218;51.480;7.006;2024-01-15T12:51:40;76804.72;;;-143.00;85.58